createdAt,value
2023-03-24T21:41:28.740Z,99754.75
2023-03-24T21:43:56.350Z,99757.03
2023-03-24T21:46:26.490Z,99747.44
2023-03-24T21:48:59.420Z,99752.66
2023-03-24T21:51:36.547Z,99755.19
2023-03-24T21:54:06.399Z,99749.91
2023-03-24T21:56:34.743Z,99766.56
2023-03-24T21:59:02.423Z,99766.63
2023-03-24T22:01:31.050Z,99768.47
2023-03-24T22:03:58.834Z,99764.19
2023-03-24T22:06:28.701Z,99766.97
2023-03-24T22:08:58.417Z,99763.56
2023-03-24T22:11:26.038Z,99754.16
2023-03-24T22:13:53.791Z,99754.16
2023-03-24T22:16:20.982Z,99750.78
2023-03-24T22:18:48.253Z,99747.09
2023-03-24T22:21:15.435Z,99750.63
2023-03-24T22:23:43.099Z,99747.09
2023-03-24T22:26:14.775Z,99748.09
2023-03-24T22:28:42.473Z,99742.91
2023-03-24T22:31:14.616Z,99752.94
2023-03-24T22:33:42.258Z,99758.16
2023-03-24T22:36:09.900Z,99751.09
2023-03-24T22:38:37.516Z,99748.56
2023-03-24T22:41:06.978Z,99749.41
2023-03-24T22:43:35.292Z,99753.63
2023-03-24T22:46:02.862Z,99746.88
2023-03-24T22:48:30.323Z,99743.03
2023-03-24T22:50:57.561Z,99744.03
2023-03-24T22:53:24.776Z,99736.13
2023-03-24T22:55:52.220Z,99736.00
2023-03-24T22:58:19.716Z,99741.38
2023-03-24T23:00:48.790Z,99741.91
2023-03-24T23:03:16.051Z,99737.00
2023-03-24T23:05:46.886Z,99737.97
2023-03-24T23:08:15.579Z,99729.94
2023-03-24T23:10:44.130Z,99737.97
2023-03-24T23:13:11.362Z,99737.31
2023-03-24T23:15:39.775Z,99737.97
2023-03-24T23:18:07.079Z,99739.81
2023-03-24T23:20:34.582Z,99732.78
2023-03-24T23:23:02.799Z,99731.78
2023-03-24T23:25:31.232Z,99736.13
2023-03-24T23:27:58.834Z,99727.72
2023-03-24T23:30:26.082Z,99729.56
2023-03-24T23:32:53.627Z,99730.53
2023-03-24T23:35:21.082Z,99730.38
2023-03-24T23:37:48.311Z,99731.47
2023-03-24T23:40:16.060Z,99732.78
2023-03-24T23:42:46.245Z,99737.13
2023-03-24T23:45:18.851Z,99732.31
2023-03-24T23:47:49.559Z,99718.91
2023-03-24T23:50:17.672Z,99721.97
2023-03-24T23:52:44.918Z,99713.47
2023-03-24T23:55:13.060Z,99708.78
2023-03-24T23:57:41.562Z,99709.06
